Time;durP1;ratioP1;P1;durP2;ratioP2;P2;SDS_P1;SDS_P2;PMS_P1;PMS_P2;Temp;Humidity;BMP_temperature;BMP_pressure;BME280_temperature;BME280_humidity;BME280_pressure;Samples;Min_cycle;Max_cycle;Signal;HPM_P1;HPM_P2
2022/12/13 00:00:29;;;;;;;36.53;18.93;;;;;;;-0.16;50.04;96802.44;5054811;28;20255;-69
2022/12/13 00:02:54;;;;;;;40.73;20.17;;;;;;;-0.24;49.89;96794.31;5061305;28;20189;-70
2022/12/13 00:05:20;;;;;;;34.17;19.67;;;;;;;-0.29;50.61;96788.66;5055095;28;20444;-70
2022/12/13 00:07:45;;;;;;;33.83;19.67;;;;;;;-0.41;49.79;96792.78;5055358;28;20265;-70
2022/12/13 00:10:11;;;;;;;30.60;17.93;;;;;;;-0.39;50.69;96785.81;5061745;28;20178;-69
2022/12/13 00:12:36;;;;;;;33.83;19.27;;;;;;;-0.43;50.68;96784.34;5054281;28;20236;-71
2022/12/13 00:15:02;;;;;;;30.03;18.50;;;;;;;-0.66;50.64;96780.59;5060007;28;20203;-72
2022/12/13 00:17:27;;;;;;;31.03;18.77;;;;;;;-0.52;50.83;96782.34;5054546;28;20212;-70
2022/12/13 00:19:53;;;;;;;33.83;18.37;;;;;;;-0.51;50.48;96782.25;5062241;28;20475;-71
2022/12/13 00:22:18;;;;;;;34.47;18.87;;;;;;;-0.51;50.49;96787.41;5055400;28;20191;-71
2022/12/13 00:24:44;;;;;;;30.37;18.30;;;;;;;-0.43;50.58;96783.53;5054496;28;20200;-71
2022/12/13 00:27:09;;;;;;;33.53;19.57;;;;;;;-0.39;50.73;96790.97;5055094;28;20614;-72
2022/12/13 00:29:34;;;;;;;31.80;19.23;;;;;;;-0.50;50.45;96788.22;5054776;28;20289;-70
2022/12/13 00:32:00;;;;;;;30.40;18.90;;;;;;;-0.55;50.50;96785.94;5063545;28;20190;-72
2022/12/13 00:34:25;;;;;;;32.50;18.53;;;;;;;-0.44;51.10;96789.59;5053077;28;20221;-73
2022/12/13 00:36:53;;;;;;;29.33;18.20;;;;;;;-0.52;50.01;96785.75;5061164;28;20753;-71
2022/12/13 00:39:18;;;;;;;27.97;17.67;;;;;;;-0.61;50.15;96776.00;5053246;28;20195;-71
2022/12/13 00:41:44;;;;;;;32.23;19.33;;;;;;;-0.54;50.27;96782.44;5063369;28;20419;-72
2022/12/13 00:44:11;;;;;;;35.13;18.60;;;;;;;-0.49;50.40;96780.38;5054626;28;20209;-70
2022/12/13 00:46:37;;;;;;;35.37;20.20;;;;;;;-0.56;50.41;96784.28;5057709;28;20187;-71
2022/12/13 00:49:03;;;;;;;30.73;19.53;;;;;;;-0.54;50.29;96779.84;5063081;28;20416;-70
2022/12/13 00:51:30;;;;;;;32.90;18.30;;;;;;;-0.52;50.47;96767.72;5052101;28;20197;-71
2022/12/13 00:53:56;;;;;;;32.00;18.77;;;;;;;-0.60;50.14;96763.97;5060681;28;20457;-70
2022/12/13 00:56:24;;;;;;;30.10;17.70;;;;;;;-0.59;50.79;96760.47;5056108;28;20458;-70
2022/12/13 00:58:50;;;;;;;31.30;18.80;;;;;;;-0.57;50.82;96756.88;5051878;28;20474;-70
2022/12/13 01:01:18;;;;;;;28.63;18.10;;;;;;;-0.47;50.36;96747.66;5058455;28;20465;-70
2022/12/13 01:03:44;;;;;;;30.33;18.33;;;;;;;-0.50;50.41;96741.88;5058598;28;20211;-70
2022/12/13 01:06:14;;;;;;;34.63;18.27;;;;;;;-0.79;50.81;96742.75;5052615;28;20431;-70
2022/12/13 01:08:40;;;;;;;36.43;18.57;;;;;;;-0.89;51.02;96744.22;5056291;28;20448;-70
2022/12/13 01:11:06;;;;;;;30.20;17.53;;;;;;;-0.85;50.14;96743.09;5060551;28;20848;-71
2022/12/13 01:13:32;;;;;;;33.57;19.03;;;;;;;-0.83;50.73;96741.25;5055395;28;20209;-71
2022/12/13 01:15:57;;;;;;;35.90;19.77;;;;;;;-0.78;50.66;96749.53;5059798;28;20503;-70
2022/12/13 01:18:23;;;;;;;32.43;19.20;;;;;;;-0.80;50.52;96748.81;5055290;28;20281;-70
2022/12/13 01:20:58;;;;;;;33.40;18.67;;;;;;;-0.75;50.59;96753.66;5058035;28;20640;-70
2022/12/13 01:23:23;;;;;;;34.43;18.30;;;;;;;-0.89;50.95;96744.22;5053887;28;20189;-69
2022/12/13 01:25:49;;;;;;;36.00;18.60;;;;;;;-0.78;50.90;96754.69;5055924;28;20429;-72
2022/12/13 01:28:14;;;;;;;36.73;19.37;;;;;;;-0.74;50.86;96754.47;5053700;28;20260;-70
2022/12/13 01:30:40;;;;;;;35.80;19.50;;;;;;;-0.73;50.88;96756.13;5056172;28;20182;-71
2022/12/13 01:33:05;;;;;;;32.53;18.57;;;;;;;-0.72;50.24;96756.06;5060099;28;20271;-70
2022/12/13 01:35:33;;;;;;;34.03;19.10;;;;;;;-0.85;50.28;96752.56;5055202;28;20204;-69
2022/12/13 01:37:59;;;;;;;34.37;18.67;;;;;;;-0.83;50.38;96756.69;5056604;28;20243;-70
2022/12/13 01:40:25;;;;;;;33.20;19.17;;;;;;;-0.91;50.30;96748.63;5053623;28;20462;-69
2022/12/13 01:42:51;;;;;;;32.53;19.10;;;;;;;-1.03;50.76;96752.75;5056573;28;20280;-71
2022/12/13 01:45:22;;;;;;;38.87;18.93;;;;;;;-1.01;50.39;96750.91;5055684;28;20235;-71
2022/12/13 01:47:53;;;;;;;34.27;18.47;;;;;;;-0.98;50.33;96753.31;5055887;28;20189;-71
2022/12/13 01:50:26;;;;;;;34.77;19.07;;;;;;;-1.06;50.87;96749.53;5059054;28;20422;-70
2022/12/13 01:52:53;;;;;;;37.83;20.50;;;;;;;-1.02;51.43;96743.31;5049994;28;20432;-71
2022/12/13 01:55:21;;;;;;;32.30;20.20;;;;;;;-0.93;51.24;96742.75;5055771;28;20449;-72
2022/12/13 01:57:48;;;;;;;29.83;18.53;;;;;;;-0.91;50.40;96743.47;5061035;28;20461;-71
2022/12/13 02:00:14;;;;;;;34.23;19.10;;;;;;;-0.93;50.44;96733.25;5053282;28;20790;-71
2022/12/13 02:02:40;;;;;;;34.93;19.53;;;;;;;-0.97;50.02;96731.81;5058999;28;20466;-71
2022/12/13 02:05:10;;;;;;;33.33;19.73;;;;;;;-1.18;50.34;96736.50;5054492;28;20536;-71
2022/12/13 02:07:37;;;;;;;29.60;17.63;;;;;;;-1.25;50.53;96724.91;5054484;28;20240;-71
2022/12/13 02:10:04;;;;;;;36.67;19.47;;;;;;;-1.25;50.72;96719.75;5051197;28;20426;-70
2022/12/13 02:12:32;;;;;;;34.97;19.10;;;;;;;-1.53;50.85;96726.53;5045737;28;20428;-71
2022/12/13 02:14:59;;;;;;;35.60;19.53;;;;;;;-1.35;50.81;96719.50;5061486;28;20540;-70
2022/12/13 02:17:50;;;;;;;33.53;19.47;;;;;;;-1.33;50.63;96716.81;5034586;28;20558;-70
2022/12/13 02:20:18;;;;;;;34.43;18.30;;;;;;;-1.33;50.66;96720.22;5055364;28;20799;-69
2022/12/13 02:22:44;;;;;;;31.80;17.80;;;;;;;-1.44;50.83;96709.72;5052656;28;20441;-70
2022/12/13 02:25:27;;;;;;;33.37;19.00;;;;;;;-1.34;50.54;96712.59;5058957;28;20456;-70
2022/12/13 02:28:22;;;;;;;36.73;20.27;;;;;;;-1.37;50.81;96712.75;5052067;28;20603;-70
2022/12/13 02:31:05;;;;;;;35.10;19.10;;;;;;;-1.37;50.64;96715.34;5049991;28;20523;-71
2022/12/13 02:33:42;;;;;;;34.13;17.87;;;;;;;-1.44;50.23;96715.72;5059857;28;20464;-70
2022/12/13 02:36:14;;;;;;;34.27;18.77;;;;;;;-1.48;51.05;96709.06;5053156;28;20428;-69
2022/12/13 02:38:45;;;;;;;38.03;18.93;;;;;;;-1.34;50.48;96710.00;5043486;28;20992;-71
2022/12/13 02:41:35;;;;;;;37.23;19.33;;;;;;;-1.46;50.11;96716.72;5058198;28;20859;-71
2022/12/13 02:44:08;;;;;;;35.37;19.07;;;;;;;-1.34;50.00;96712.59;5046510;28;20808;-70
2022/12/13 02:46:39;;;;;;;32.43;17.67;;;;;;;-1.42;50.13;96707.88;5054528;28;20450;-71
2022/12/13 02:49:06;;;;;;;31.33;18.13;;;;;;;-1.44;50.37;96702.00;5060303;28;20434;-69
2022/12/13 02:51:32;;;;;;;33.23;18.60;;;;;;;-1.41;50.25;96706.97;5050380;28;20437;-71
2022/12/13 02:53:57;;;;;;;32.63;18.43;;;;;;;-1.62;50.64;96711.63;5058580;28;20591;-70
2022/12/13 02:56:22;;;;;;;35.57;18.47;;;;;;;-1.58;50.19;96715.66;5050415;28;20232;-69
2022/12/13 02:58:51;;;;;;;33.00;18.40;;;;;;;-1.68;50.75;96712.00;5057808;28;20189;-69
2022/12/13 03:01:48;;;;;;;31.67;18.50;;;;;;;-1.83;50.40;96709.38;5052678;28;20585;-69
2022/12/13 03:04:32;;;;;;;39.50;19.70;;;;;;;-1.76;50.62;96705.53;5049481;28;20520;-68
2022/12/13 03:07:03;;;;;;;33.70;19.00;;;;;;;-1.64;50.59;96692.91;5053171;28;20420;-71
2022/12/13 03:09:45;;;;;;;33.90;19.50;;;;;;;-1.68;50.20;96694.00;5057355;28;20520;-70
2022/12/13 03:15:13;;;;;;;32.93;17.93;;;;;;;-1.83;50.78;96685.44;5053294;28;20452;-69
2022/12/13 03:17:48;;;;;;;33.73;17.80;;;;;;;-1.91;50.40;96675.59;5056259;28;20473;-69
2022/12/13 03:20:18;;;;;;;33.57;18.03;;;;;;;-1.87;50.24;96670.19;5057412;28;20494;-68
2022/12/13 03:22:43;;;;;;;36.00;19.43;;;;;;;-1.81;50.22;96670.75;5060592;28;20431;-69
2022/12/13 03:25:09;;;;;;;33.53;18.80;;;;;;;-1.89;50.07;96674.59;5055827;28;20455;-70
2022/12/13 03:27:34;;;;;;;37.03;18.90;;;;;;;-1.90;50.54;96677.25;5057999;28;20177;-69
2022/12/13 03:30:00;;;;;;;39.90;19.60;;;;;;;-1.82;50.40;96674.22;5061274;28;20846;-72
2022/12/13 03:32:25;;;;;;;40.20;19.37;;;;;;;-1.82;50.27;96689.63;5057561;28;20212;-69
2022/12/13 03:34:50;;;;;;;36.20;18.40;;;;;;;-1.81;50.40;96678.44;5057393;28;20321;-69
2022/12/13 03:37:16;;;;;;;35.10;18.87;;;;;;;-1.74;50.42;96677.19;5062776;28;20293;-71
2022/12/13 03:39:41;;;;;;;29.40;17.87;;;;;;;-1.87;50.69;96677.91;5058575;28;20669;-70
2022/12/13 03:42:07;;;;;;;29.33;17.20;;;;;;;-1.81;50.33;96676.72;5061231;28;20609;-70
2022/12/13 03:44:32;;;;;;;34.10;18.73;;;;;;;-1.84;50.15;96674.31;5057620;28;20199;-70
2022/12/13 03:46:58;;;;;;;30.50;18.43;;;;;;;-1.79;50.21;96674.91;5064647;28;20203;-70
2022/12/13 03:49:23;;;;;;;35.60;18.40;;;;;;;-1.76;49.76;96669.56;5056609;28;20188;-70
2022/12/13 03:51:49;;;;;;;33.33;17.97;;;;;;;-1.72;49.59;96676.19;5060241;28;20183;-70
2022/12/13 03:54:14;;;;;;;31.13;18.20;;;;;;;-1.72;49.34;96665.09;5021091;28;20309;-70
2022/12/13 03:56:40;;;;;;;52.70;20.00;;;;;;;-1.99;50.18;96658.06;5057723;28;20304;-69
2022/12/13 03:59:05;;;;;;;31.00;17.67;;;;;;;-1.85;49.88;96664.97;5059934;28;20880;-69
2022/12/13 04:01:31;;;;;;;36.10;19.63;;;;;;;-1.92;49.43;96648.25;5053519;28;20269;-70
2022/12/13 04:03:56;;;;;;;33.87;19.33;;;;;;;-2.02;50.05;96658.22;5059426;28;20249;-70
2022/12/13 04:06:21;;;;;;;33.63;17.90;;;;;;;-1.98;49.56;96656.28;5052880;28;20184;-69
2022/12/13 04:08:47;;;;;;;37.00;19.47;;;;;;;-2.03;49.96;96657.41;5052772;28;20650;-69
2022/12/13 04:13:56;;;;;;;32.70;18.90;;;;;;;-1.95;49.35;96653.56;5057604;28;20207;-69
2022/12/13 04:16:22;;;;;;;31.27;18.10;;;;;;;-1.94;49.16;96655.22;5055314;28;20576;-69
2022/12/13 04:18:48;;;;;;;32.60;17.53;;;;;;;-2.02;49.73;96655.66;5055348;28;20678;-70
2022/12/13 04:21:13;;;;;;;36.77;19.90;;;;;;;-2.04;49.71;96653.19;5059166;28;20508;-69
2022/12/13 04:23:39;;;;;;;32.73;19.00;;;;;;;-2.03;49.68;96656.56;5055933;28;20290;-70
2022/12/13 04:26:04;;;;;;;32.50;18.73;;;;;;;-2.07;49.45;96666.19;5056677;28;20185;-72
2022/12/13 04:28:30;;;;;;;36.00;18.97;;;;;;;-2.09;49.64;96660.31;5048188;28;20191;-71
2022/12/13 04:30:55;;;;;;;33.30;18.77;;;;;;;-2.04;49.39;96654.91;5046447;28;20698;-71
2022/12/13 04:33:21;;;;;;;30.97;18.07;;;;;;;-2.14;49.71;96664.06;5055213;28;20195;-71
2022/12/13 04:35:47;;;;;;;31.17;17.70;;;;;;;-2.08;49.93;96659.41;5059305;28;20310;-70
2022/12/13 04:38:12;;;;;;;31.20;19.00;;;;;;;-2.03;49.79;96662.53;5059528;28;20508;-70
2022/12/13 04:40:38;;;;;;;35.23;19.10;;;;;;;-1.98;49.90;96659.72;5055281;28;20266;-69
2022/12/13 04:43:03;;;;;;;39.57;18.37;;;;;;;-1.99;49.27;96665.75;5059812;28;20212;-71
2022/12/13 04:45:29;;;;;;;34.57;17.30;;;;;;;-1.96;49.83;96662.19;5062926;28;20619;-70
2022/12/13 04:47:54;;;;;;;34.30;18.60;;;;;;;-2.06;49.84;96657.56;5054864;28;20207;-68
2022/12/13 04:50:20;;;;;;;33.80;18.30;;;;;;;-2.10;50.07;96655.28;5057223;28;20184;-70
2022/12/13 04:52:45;;;;;;;33.30;17.43;;;;;;;-2.24;49.85;96658.59;5054231;28;20211;-70
2022/12/13 04:55:11;;;;;;;30.70;17.10;;;;;;;-2.15;50.01;96647.84;5059290;28;20264;-69
2022/12/13 04:57:36;;;;;;;31.57;18.73;;;;;;;-2.17;49.81;96647.09;5058953;28;20207;-69
2022/12/13 05:00:04;;;;;;;32.70;17.03;;;;;;;-2.12;49.89;96651.97;5051430;28;20544;-70
2022/12/13 05:02:30;;;;;;;30.17;18.20;;;;;;;-2.21;49.66;96651.56;5057199;28;20267;-70
2022/12/13 05:04:55;;;;;;;32.30;17.50;;;;;;;-2.10;49.91;96652.69;5054492;28;20537;-70
2022/12/13 05:07:21;;;;;;;31.27;18.17;;;;;;;-2.20;49.96;96649.81;5056406;28;20252;-69
2022/12/13 05:09:46;;;;;;;31.37;17.37;;;;;;;-2.16;49.52;96641.03;5057817;28;20179;-70
2022/12/13 05:12:11;;;;;;;44.37;18.27;;;;;;;-2.10;49.14;96647.56;5058540;28;20219;-71
2022/12/13 05:14:37;;;;;;;29.17;16.23;;;;;;;-2.20;49.00;96652.38;5064822;28;20253;-70
2022/12/13 05:17:02;;;;;;;45.80;17.57;;;;;;;-2.24;49.37;96648.31;5058856;28;20577;-70
2022/12/13 05:19:28;;;;;;;37.17;18.60;;;;;;;-2.21;49.81;96643.03;5058213;28;20189;-71
2022/12/13 05:21:53;;;;;;;29.90;16.90;;;;;;;-2.26;49.66;96645.03;5053650;28;20191;-71
2022/12/13 05:24:19;;;;;;;34.97;18.10;;;;;;;-2.26;49.50;96639.88;5059434;28;20209;-71
2022/12/13 05:26:44;;;;;;;32.40;17.00;;;;;;;-2.22;49.61;96636.25;5059125;28;20186;-71
2022/12/13 05:29:10;;;;;;;28.70;16.87;;;;;;;-2.20;49.61;96642.13;5054474;28;20194;-71
2022/12/13 05:31:35;;;;;;;32.90;16.87;;;;;;;-2.20;49.15;96644.69;5060546;28;20183;-70
2022/12/13 05:34:01;;;;;;;32.20;17.70;;;;;;;-2.35;49.68;96641.25;5054560;28;20875;-68
2022/12/13 05:36:26;;;;;;;32.77;16.33;;;;;;;-2.40;49.97;96641.50;5052336;28;20313;-69
2022/12/13 05:38:52;;;;;;;33.80;18.57;;;;;;;-2.39;49.93;96640.56;5058477;28;20251;-69
2022/12/13 05:41:20;;;;;;;33.27;17.57;;;;;;;-2.33;49.66;96645.38;5063066;28;20264;-70
2022/12/13 05:43:45;;;;;;;32.97;17.00;;;;;;;-2.30;49.50;96636.66;5059083;28;20339;-71
2022/12/13 05:46:13;;;;;;;32.10;17.17;;;;;;;-2.25;49.31;96639.81;5053927;28;21005;-71
2022/12/13 05:48:40;;;;;;;30.03;17.03;;;;;;;-2.26;49.25;96632.19;5056388;28;20365;-71
2022/12/13 05:51:05;;;;;;;26.70;15.30;;;;;;;-2.36;49.54;96635.28;5053816;28;20929;-71
2022/12/13 05:53:31;;;;;;;28.43;16.07;;;;;;;-2.35;49.61;96639.50;5059078;28;20536;-69
2022/12/13 05:56:00;;;;;;;32.20;16.73;;;;;;;-2.34;49.69;96628.31;5057678;28;20398;-70
2022/12/13 05:58:25;;;;;;;34.40;16.10;;;;;;;-2.36;49.95;96627.56;5052111;28;20566;-71
2022/12/13 06:00:51;;;;;;;32.50;16.87;;;;;;;-2.37;49.21;96620.78;5057662;28;20456;-69
2022/12/13 06:03:16;;;;;;;28.57;15.90;;;;;;;-2.41;49.56;96618.47;5051892;28;20252;-71
2022/12/13 06:05:42;;;;;;;31.93;17.10;;;;;;;-2.34;50.05;96622.38;5054761;28;20693;-71
2022/12/13 06:08:08;;;;;;;31.77;17.10;;;;;;;-2.39;49.76;96619.22;5051369;28;20179;-72
2022/12/13 06:10:33;;;;;;;32.63;17.27;;;;;;;-2.33;49.33;96629.97;5059166;28;20437;-69
2022/12/13 06:12:59;;;;;;;37.23;16.20;;;;;;;-2.39;49.74;96627.72;5065650;28;20204;-69
2022/12/13 06:15:24;;;;;;;33.27;16.90;;;;;;;-2.36;49.65;96627.56;5053530;28;20757;-71
2022/12/13 06:17:50;;;;;;;30.00;16.87;;;;;;;-2.33;49.67;96621.44;5059917;28;20626;-70
2022/12/13 06:20:15;;;;;;;38.00;16.57;;;;;;;-2.33;49.69;96629.13;5053996;28;20737;-70
2022/12/13 06:22:41;;;;;;;35.97;18.13;;;;;;;-2.42;49.45;96634.78;5057920;28;20637;-70
2022/12/13 06:25:06;;;;;;;31.63;16.90;;;;;;;-2.40;49.41;96633.81;5056355;28;20412;-71
2022/12/13 06:27:32;;;;;;;40.63;17.60;;;;;;;-2.33;49.50;96624.84;5056761;28;20240;-70
2022/12/13 06:29:57;;;;;;;29.00;17.57;;;;;;;-2.43;49.57;96626.28;5062476;28;20205;-70
2022/12/13 06:32:23;;;;;;;46.10;18.20;;;;;;;-2.43;49.90;96626.28;5053025;28;20289;-68
2022/12/13 06:34:48;;;;;;;32.00;17.60;;;;;;;-2.52;49.71;96619.09;5051159;28;20616;-71
2022/12/13 06:37:14;;;;;;;43.53;19.20;;;;;;;-2.50;49.57;96622.38;5056836;28;20672;-70
2022/12/13 06:39:39;;;;;;;36.17;18.20;;;;;;;-2.40;49.75;96628.69;5058232;28;20234;-69
2022/12/13 06:42:07;;;;;;;37.43;17.43;;;;;;;-2.46;50.13;96639.28;5060861;28;20186;-71
2022/12/13 06:44:33;;;;;;;35.30;17.13;;;;;;;-2.60;50.00;96626.38;5056482;28;20678;-71
2022/12/13 06:46:59;;;;;;;46.67;20.93;;;;;;;-2.59;50.48;96617.75;5037253;28;20438;-71
2022/12/13 06:49:25;;;;;;;39.10;19.60;;;;;;;-2.50;50.00;96624.94;5056000;28;20442;-71
2022/12/13 06:51:50;;;;;;;39.90;18.50;;;;;;;-2.48;49.79;96633.38;5033901;28;20425;-69
2022/12/13 06:54:15;;;;;;;42.23;20.93;;;;;;;-2.51;50.38;96641.25;5057317;28;20202;-69
2022/12/13 06:56:41;;;;;;;37.50;18.73;;;;;;;-2.45;50.28;96643.50;5058087;28;20294;-71
2022/12/13 06:59:06;;;;;;;39.90;19.73;;;;;;;-2.37;49.55;96638.75;5058193;28;20694;-70
2022/12/13 07:01:32;;;;;;;38.97;18.10;;;;;;;-2.55;49.98;96647.50;5061936;28;20483;-72
2022/12/13 07:03:57;;;;;;;36.20;18.87;;;;;;;-2.46;49.73;96646.97;5059502;28;20234;-70
2022/12/13 07:06:24;;;;;;;44.00;19.90;;;;;;;-2.44;50.07;96640.03;5061151;28;20212;-70
2022/12/13 07:08:54;;;;;;;41.17;19.17;;;;;;;-2.52;49.83;96645.56;5061154;28;20193;-71
2022/12/13 07:11:22;;;;;;;37.77;18.90;;;;;;;-2.45;50.09;96640.09;5065458;28;20527;-70
2022/12/13 07:13:47;;;;;;;49.10;21.00;;;;;;;-2.42;50.07;96651.03;5067618;28;20452;-70
2022/12/13 07:16:14;;;;;;;40.80;19.40;;;;;;;-2.42;49.95;96651.03;5071065;28;20424;-70
2022/12/13 07:18:39;;;;;;;43.50;19.77;;;;;;;-2.41;49.95;96662.97;5057009;28;20194;-72
2022/12/13 07:21:06;;;;;;;40.97;20.37;;;;;;;-2.51;50.10;96657.50;5049034;28;20980;-73
2022/12/13 07:23:33;;;;;;;39.70;19.40;;;;;;;-2.49;50.02;96654.84;5053879;28;20250;-70
2022/12/13 07:25:58;;;;;;;35.67;19.10;;;;;;;-2.42;49.88;96651.03;5058154;28;20430;-71
2022/12/13 07:28:24;;;;;;;37.40;21.10;;;;;;;-2.41;49.56;96646.72;5060996;28;21931;-70
2022/12/13 07:30:49;;;;;;;42.30;19.83;;;;;;;-2.34;49.71;96648.03;5059764;28;20256;-70
2022/12/13 07:33:15;;;;;;;42.80;20.70;;;;;;;-2.31;49.46;96645.28;5055877;28;20203;-71
2022/12/13 07:35:40;;;;;;;32.23;18.10;;;;;;;-2.28;49.90;96650.25;5056849;28;20203;-70
2022/12/13 07:38:07;;;;;;;37.50;18.90;;;;;;;-2.30;50.10;96659.78;5059429;28;20251;-70
2022/12/13 07:40:34;;;;;;;38.60;19.23;;;;;;;-2.27;50.39;96658.78;5072990;28;20183;-70
2022/12/13 07:42:59;;;;;;;34.63;19.40;;;;;;;-2.25;50.28;96664.66;5065284;28;20471;-70
2022/12/13 07:45:25;;;;;;;31.03;16.37;;;;;;;-2.23;50.30;96666.25;5065487;28;20449;-70
2022/12/13 07:47:50;;;;;;;30.53;17.20;;;;;;;-2.21;50.34;96668.72;5055014;28;20270;-71
2022/12/13 07:50:16;;;;;;;34.13;17.00;;;;;;;-2.33;50.56;96671.03;5062346;28;20195;-69
2022/12/13 07:52:41;;;;;;;40.00;18.43;;;;;;;-2.14;50.83;96664.88;5061550;28;20189;-71
2022/12/13 07:55:07;;;;;;;32.40;18.57;;;;;;;-2.07;50.41;96676.47;5064604;28;20213;-71
2022/12/13 07:57:33;;;;;;;34.40;18.90;;;;;;;-1.99;50.38;96672.63;5066448;28;20213;-71
2022/12/13 07:59:58;;;;;;;36.00;19.07;;;;;;;-1.82;50.37;96669.94;5049847;28;20196;-71
2022/12/13 08:02:24;;;;;;;39.70;19.90;;;;;;;-1.76;50.03;96674.69;5072626;28;20186;-70
2022/12/13 08:04:49;;;;;;;36.80;19.67;;;;;;;-1.74;50.06;96680.56;5066601;28;20703;-69
2022/12/13 08:07:15;;;;;;;36.17;18.90;;;;;;;-1.47;49.84;96681.63;5069852;28;20185;-70
2022/12/13 08:09:40;;;;;;;45.47;20.90;;;;;;;-1.21;49.81;96687.00;5057758;28;20186;-70
2022/12/13 08:12:06;;;;;;;35.60;19.87;;;;;;;-1.03;49.21;96685.06;5059882;28;20590;-70
2022/12/13 08:14:32;;;;;;;36.77;18.83;;;;;;;-0.69;49.42;96675.25;5062347;28;20217;-69
2022/12/13 08:16:57;;;;;;;36.17;18.50;;;;;;;-0.51;48.91;96673.28;5061893;28;20305;-70
2022/12/13 08:19:23;;;;;;;38.23;18.83;;;;;;;-0.42;48.88;96674.44;5059333;28;20180;-69
2022/12/13 08:21:51;;;;;;;37.20;19.30;;;;;;;-0.34;49.10;96667.06;5056789;28;20185;-70
2022/12/13 08:24:16;;;;;;;40.93;20.37;;;;;;;-0.19;49.05;96673.00;5057585;28;20289;-71
2022/12/13 08:26:42;;;;;;;35.97;18.53;;;;;;;-0.27;49.10;96668.34;5060761;28;20534;-72
2022/12/13 08:29:07;;;;;;;37.90;20.50;;;;;;;-0.11;48.67;96670.75;5056595;28;20467;-71
2022/12/13 08:31:33;;;;;;;44.47;21.70;;;;;;;-0.16;49.06;96673.63;5066383;28;20290;-70
2022/12/13 08:33:58;;;;;;;38.93;19.20;;;;;;;0.03;49.00;96677.56;5057112;28;20235;-69
2022/12/13 08:36:24;;;;;;;37.37;20.20;;;;;;;0.15;48.42;96671.63;5055179;28;20183;-70
2022/12/13 08:38:52;;;;;;;44.20;22.90;;;;;;;0.34;48.14;96678.16;5063609;28;20186;-70
2022/12/13 08:41:17;;;;;;;44.83;23.70;;;;;;;0.27;48.13;96676.91;5054900;28;20214;-69
2022/12/13 08:43:43;;;;;;;50.77;26.40;;;;;;;0.41;48.83;96676.81;5060711;28;20838;-72
2022/12/13 08:46:08;;;;;;;45.40;24.07;;;;;;;0.53;48.55;96671.75;5060378;28;20259;-69
2022/12/13 08:48:34;;;;;;;45.97;24.83;;;;;;;0.71;48.84;96670.53;5054520;28;20183;-71
2022/12/13 08:51:01;;;;;;;41.40;22.80;;;;;;;0.87;48.50;96677.25;5056057;28;20232;-70
2022/12/13 08:53:26;;;;;;;42.93;24.10;;;;;;;0.96;49.00;96680.91;5053609;28;20183;-69
2022/12/13 08:55:52;;;;;;;41.00;22.50;;;;;;;1.04;48.69;96686.41;5062396;28;20424;-70
2022/12/13 08:58:17;;;;;;;44.00;22.10;;;;;;;1.04;47.83;96689.78;5055458;28;20241;-70
2022/12/13 09:00:45;;;;;;;47.47;22.77;;;;;;;1.34;47.98;96687.75;5060663;28;20265;-70
2022/12/13 09:03:10;;;;;;;49.40;21.53;;;;;;;1.61;47.38;96677.28;5056238;28;20182;-69
2022/12/13 09:05:36;;;;;;;39.40;21.43;;;;;;;1.78;48.00;96670.03;5059773;28;20591;-70
2022/12/13 09:08:03;;;;;;;39.63;22.67;;;;;;;2.14;47.14;96663.16;5050900;28;20179;-70
2022/12/13 09:10:28;;;;;;;36.00;20.90;;;;;;;2.50;45.92;96663.94;5060811;28;20422;-70
2022/12/13 09:12:56;;;;;;;30.43;19.73;;;;;;;2.73;45.24;96658.78;5058079;28;20805;-71
2022/12/13 09:15:21;;;;;;;31.33;18.07;;;;;;;2.88;44.29;96655.03;5061959;28;20248;-71
2022/12/13 09:17:47;;;;;;;27.50;16.13;;;;;;;3.02;44.09;96660.94;5062053;28;20556;-70
2022/12/13 09:20:12;;;;;;;40.90;20.50;;;;;;;2.88;44.69;96661.97;5054654;28;20297;-71
2022/12/13 09:22:38;;;;;;;33.60;18.93;;;;;;;3.01;43.62;96664.47;5057527;28;20194;-72
2022/12/13 09:25:04;;;;;;;44.73;20.80;;;;;;;3.04;44.66;96656.44;5060066;28;20205;-69
2022/12/13 09:27:30;;;;;;;39.20;20.70;;;;;;;3.08;45.04;96675.97;5057921;28;20183;-71
2022/12/13 09:29:56;;;;;;;32.27;18.53;;;;;;;3.25;43.46;96664.31;5054954;28;20446;-70
2022/12/13 09:32:22;;;;;;;33.20;18.00;;;;;;;3.38;43.20;96665.00;5056889;28;20453;-70
2022/12/13 09:34:47;;;;;;;27.60;17.20;;;;;;;3.57;42.81;96657.53;5052064;28;20202;-70
2022/12/13 09:37:13;;;;;;;30.83;16.57;;;;;;;3.76;42.48;96657.72;5058147;28;20543;-70
2022/12/13 09:39:38;;;;;;;32.13;18.10;;;;;;;4.05;41.91;96664.91;5059171;28;20190;-70
2022/12/13 09:42:05;;;;;;;27.60;17.20;;;;;;;4.17;41.60;96665.69;5061813;28;20646;-70
2022/12/13 09:44:35;;;;;;;29.93;17.80;;;;;;;4.19;42.34;96657.78;5045195;28;20207;-70
2022/12/13 09:47:02;;;;;;;25.80;16.40;;;;;;;4.47;41.47;96671.91;5055533;28;20936;-70
2022/12/13 09:49:34;;;;;;;32.03;17.07;;;;;;;4.50;41.89;96676.00;5055857;28;20517;-70
2022/12/13 09:52:01;;;;;;;24.70;16.97;;;;;;;4.48;42.18;96664.94;5051785;28;20422;-70
2022/12/13 09:54:27;;;;;;;31.80;17.43;;;;;;;4.38;41.11;96675.25;5056132;28;20468;-70
2022/12/13 09:56:54;;;;;;;26.50;16.00;;;;;;;4.32;39.78;96668.78;5057233;28;20465;-71
2022/12/13 09:59:27;;;;;;;28.43;17.60;;;;;;;4.28;40.98;96662.22;5053382;28;20190;-70
2022/12/13 10:01:54;;;;;;;23.63;14.30;;;;;;;4.05;40.29;96672.69;5047269;28;20443;-70
2022/12/13 10:04:19;;;;;;;26.30;14.57;;;;;;;4.30;40.22;96666.34;5053948;28;20463;-72
2022/12/13 10:06:45;;;;;;;20.90;13.67;;;;;;;4.35;40.90;96663.34;5056593;28;20479;-72
2022/12/13 10:09:12;;;;;;;24.93;13.33;;;;;;;4.40;38.98;96650.84;5052335;28;20298;-72
2022/12/13 10:11:46;;;;;;;20.67;13.77;;;;;;;4.36;39.13;96657.22;5043638;28;20189;-70
2022/12/13 10:14:17;;;;;;;19.50;12.10;;;;;;;4.41;38.92;96641.25;5059775;28;20452;-70
2022/12/13 10:16:49;;;;;;;21.33;12.03;;;;;;;4.50;39.01;96640.50;5059472;28;20462;-70
2022/12/13 10:19:21;;;;;;;20.10;12.17;;;;;;;4.40;38.75;96640.47;5054923;28;20518;-70
2022/12/13 10:21:47;;;;;;;29.47;12.50;;;;;;;4.50;38.87;96634.50;5054228;28;20425;-71
2022/12/13 10:24:14;;;;;;;19.10;11.90;;;;;;;4.46;38.44;96634.75;5055180;28;20445;-71
2022/12/13 10:26:40;;;;;;;21.47;11.80;;;;;;;4.57;38.47;96631.25;5023987;28;20460;-70
2022/12/13 10:29:06;;;;;;;18.20;11.40;;;;;;;4.65;38.43;96643.59;5052262;28;20429;-71
2022/12/13 10:31:40;;;;;;;18.83;11.03;;;;;;;4.23;36.88;96636.63;5037956;28;20588;-72
2022/12/13 10:34:21;;;;;;;19.03;11.97;;;;;;;4.11;37.67;96635.88;5056318;28;20267;-71
2022/12/13 10:36:46;;;;;;;20.53;12.60;;;;;;;4.29;38.74;96622.34;5058662;28;20467;-70
2022/12/13 10:39:39;;;;;;;18.10;11.30;;;;;;;4.34;38.10;96621.97;5058738;28;20413;-71
2022/12/13 10:42:11;;;;;;;20.87;11.80;;;;;;;4.05;38.08;96625.19;5054454;28;20194;-70
2022/12/13 10:44:37;;;;;;;20.13;12.00;;;;;;;4.19;38.33;96618.88;5048338;28;20433;-70
2022/12/13 10:47:08;;;;;;;17.47;10.63;;;;;;;4.22;38.16;96626.41;5058420;28;20427;-70
2022/12/13 10:49:50;;;;;;;17.60;11.57;;;;;;;4.43;37.54;96614.22;5048889;28;20241;-71
2022/12/13 10:52:34;;;;;;;17.47;10.23;;;;;;;4.32;37.42;96616.91;5056148;28;20783;-70
2022/12/13 10:55:04;;;;;;;20.80;10.63;;;;;;;4.35;37.80;96605.47;5041735;28;20448;-70
2022/12/13 10:57:30;;;;;;;21.80;11.77;;;;;;;4.32;37.32;96606.53;5045502;28;20465;-70
2022/12/13 10:59:55;;;;;;;20.93;11.10;;;;;;;4.14;37.86;96609.72;5057573;28;20440;-70
2022/12/13 11:02:30;;;;;;;19.40;11.40;;;;;;;4.21;37.86;96604.00;5061015;28;20414;-70
2022/12/13 11:04:57;;;;;;;23.20;11.63;;;;;;;4.42;38.01;96609.97;5057855;28;20464;-70
2022/12/13 11:07:32;;;;;;;22.47;11.73;;;;;;;4.49;37.58;96614.69;5009187;28;20453;-70
2022/12/13 11:10:20;;;;;;;22.80;11.73;;;;;;;4.74;36.96;96611.66;5027893;28;20436;-70
2022/12/13 11:12:46;;;;;;;18.70;10.67;;;;;;;4.78;36.63;96601.03;5063422;28;20424;-71
2022/12/13 11:15:18;;;;;;;20.63;11.30;;;;;;;4.78;36.95;96601.81;5061799;28;20470;-70
2022/12/13 11:17:50;;;;;;;16.23;10.80;;;;;;;4.90;36.72;96599.97;5027541;28;20463;-70
2022/12/13 11:20:21;;;;;;;15.53;10.47;;;;;;;4.87;37.12;96595.03;5055865;28;20483;-70
2022/12/13 11:22:48;;;;;;;21.40;10.40;;;;;;;4.61;36.37;96604.06;5060187;28;20459;-71
2022/12/13 11:25:24;;;;;;;20.70;11.20;;;;;;;4.36;36.22;96600.13;5044014;28;20510;-70